Lamard, Illinois
Current Conditions -  °F | °C
As of 12:35 PM on Wednesday 26 Nov 2014 (Local Time) from KFWC Reporting Station
Scattered Clouds Scattered Clouds  
Wind Chill: 31°   Ceiling: Unl
Heat Index: 37°   Visibility: 10mi
Dew Point: 30°   Wind: 8mph
Humidity: 76%   Direction: 100°E
Pressure: 30.04"   Gusts: NA
Location:  38.4399°N, 88.4246°W
Report Text: KFWC 261835Z AUTO 10007KT 10SM SCT120 03/M01 A3004 RMK AO1 T00301009
Loading
Personal Weather Stations






























Interactive Weather Map New forecast layout! Learn more

10-Day Weather Forecast

Advertisements
Track Severe Weather on mobile